sensor_id;sensor_type;location;lat;lon;timestamp;pressure;altitude;pressure_sealevel;temperature;humidity
48089;BME280;33867;50.314;7.802;2023-02-05T00:01:21;102556.72;;;2.46;89.21
48089;BME280;33867;50.314;7.802;2023-02-05T00:04:40;102563.03;;;2.42;89.23
48089;BME280;33867;50.314;7.802;2023-02-05T00:08:24;102540.94;;;2.40;89.96
48089;BME280;33867;50.314;7.802;2023-02-05T00:11:45;102529.47;;;2.36;89.47
48089;BME280;33867;50.314;7.802;2023-02-05T00:15:05;102530.34;;;2.38;89.61
48089;BME280;33867;50.314;7.802;2023-02-05T00:18:24;102539.16;;;2.40;89.54
48089;BME280;33867;50.314;7.802;2023-02-05T00:21:44;102536.31;;;2.46;89.76
48089;BME280;33867;50.314;7.802;2023-02-05T00:25:32;102538.75;;;2.55;89.31
48089;BME280;33867;50.314;7.802;2023-02-05T00:28:52;102529.88;;;2.56;89.16
48089;BME280;33867;50.314;7.802;2023-02-05T00:32:11;102530.03;;;2.50;89.01
48089;BME280;33867;50.314;7.802;2023-02-05T00:35:43;102523.13;;;2.43;89.63
48089;BME280;33867;50.314;7.802;2023-02-05T00:39:05;102517.78;;;2.43;89.66
48089;BME280;33867;50.314;7.802;2023-02-05T00:42:25;102506.53;;;2.68;88.05
48089;BME280;33867;50.314;7.802;2023-02-05T00:45:56;102497.34;;;2.79;87.59
48089;BME280;33867;50.314;7.802;2023-02-05T00:49:51;102476.94;;;2.80;87.46
48089;BME280;33867;50.314;7.802;2023-02-05T00:53:13;102483.09;;;2.48;87.86
48089;BME280;33867;50.314;7.802;2023-02-05T00:56:32;102481.16;;;2.54;87.99
48089;BME280;33867;50.314;7.802;2023-02-05T01:04:51;102463.38;;;2.89;87.10
48089;BME280;33867;50.314;7.802;2023-02-05T01:08:16;102469.13;;;2.74;87.78
48089;BME280;33867;50.314;7.802;2023-02-05T01:12:17;102461.97;;;2.76;88.07
48089;BME280;33867;50.314;7.802;2023-02-05T01:16:21;102468.59;;;2.61;88.18
48089;BME280;33867;50.314;7.802;2023-02-05T01:19:52;102455.59;;;2.50;88.92
48089;BME280;33867;50.314;7.802;2023-02-05T01:23:11;102459.69;;;2.62;88.81
48089;BME280;33867;50.314;7.802;2023-02-05T01:26:36;102457.31;;;2.51;88.02
48089;BME280;33867;50.314;7.802;2023-02-05T01:30:18;102450.94;;;2.57;88.63
48089;BME280;33867;50.314;7.802;2023-02-05T01:33:37;102438.25;;;2.68;88.29
48089;BME280;33867;50.314;7.802;2023-02-05T01:37:02;102430.22;;;2.70;88.27
48089;BME280;33867;50.314;7.802;2023-02-05T01:40:24;102439.34;;;2.61;87.90
48089;BME280;33867;50.314;7.802;2023-02-05T01:47:27;102437.31;;;2.69;88.23
48089;BME280;33867;50.314;7.802;2023-02-05T01:51:00;102440.94;;;2.67;88.22
48089;BME280;33867;50.314;7.802;2023-02-05T01:54:25;102426.06;;;2.59;88.45
48089;BME280;33867;50.314;7.802;2023-02-05T01:57:47;102419.22;;;2.82;87.91
48089;BME280;33867;50.314;7.802;2023-02-05T02:01:26;102420.19;;;2.79;88.31
48089;BME280;33867;50.314;7.802;2023-02-05T02:04:56;102403.16;;;2.86;87.54
48089;BME280;33867;50.314;7.802;2023-02-05T02:08:55;102397.88;;;2.85;87.93
48089;BME280;33867;50.314;7.802;2023-02-05T02:12:20;102408.34;;;2.91;88.00
48089;BME280;33867;50.314;7.802;2023-02-05T02:15:49;102402.13;;;2.90;87.60
48089;BME280;33867;50.314;7.802;2023-02-05T02:19:44;102398.47;;;2.94;88.26
48089;BME280;33867;50.314;7.802;2023-02-05T02:42:28;102364.63;;;3.00;88.04
48089;BME280;33867;50.314;7.802;2023-02-05T02:46:03;102367.25;;;3.01;88.02
48089;BME280;33867;50.314;7.802;2023-02-05T02:53:36;102373.78;;;2.27;90.29
48089;BME280;33867;50.314;7.802;2023-02-05T02:57:00;102378.53;;;2.49;90.12
48089;BME280;33867;50.314;7.802;2023-02-05T03:00:23;102369.44;;;2.56;90.05
48089;BME280;33867;50.314;7.802;2023-02-05T03:03:51;102368.81;;;2.46;90.72
48089;BME280;33867;50.314;7.802;2023-02-05T03:07:25;102356.09;;;2.57;89.84
48089;BME280;33867;50.314;7.802;2023-02-05T03:15:04;102358.97;;;2.81;89.31
48089;BME280;33867;50.314;7.802;2023-02-05T03:18:43;102353.06;;;2.40;89.99
48089;BME280;33867;50.314;7.802;2023-02-05T03:22:03;102342.78;;;2.57;90.36
48089;BME280;33867;50.314;7.802;2023-02-05T03:30:09;102357.47;;;3.02;88.97
48089;BME280;33867;50.314;7.802;2023-02-05T03:52:17;102361.91;;;3.01;89.54
48089;BME280;33867;50.314;7.802;2023-02-05T03:56:20;102361.47;;;2.56;91.96
48089;BME280;33867;50.314;7.802;2023-02-05T04:00:13;102355.75;;;2.70;92.72
48089;BME280;33867;50.314;7.802;2023-02-05T04:03:33;102366.22;;;2.76;91.84
48089;BME280;33867;50.314;7.802;2023-02-05T04:06:59;102357.13;;;2.83;91.76
48089;BME280;33867;50.314;7.802;2023-02-05T04:10:27;102356.97;;;2.58;92.64
48089;BME280;33867;50.314;7.802;2023-02-05T04:13:54;102337.63;;;2.53;92.71
48089;BME280;33867;50.314;7.802;2023-02-05T04:21:58;102308.41;;;2.20;94.43
48089;BME280;33867;50.314;7.802;2023-02-05T04:25:25;102295.06;;;2.22;94.63
48089;BME280;33867;50.314;7.802;2023-02-05T04:29:09;102296.56;;;1.99;97.47
48089;BME280;33867;50.314;7.802;2023-02-05T04:32:42;102305.53;;;2.28;96.47
48089;BME280;33867;50.314;7.802;2023-02-05T04:36:16;102312.91;;;2.49;95.26
48089;BME280;33867;50.314;7.802;2023-02-05T04:40:26;102324.44;;;2.79;93.57
48089;BME280;33867;50.314;7.802;2023-02-05T04:44:28;102330.03;;;3.00;91.82
48089;BME280;33867;50.314;7.802;2023-02-05T04:48:42;102322.66;;;3.08;91.17
48089;BME280;33867;50.314;7.802;2023-02-05T04:58:28;102331.22;;;3.17;90.00
48089;BME280;33867;50.314;7.802;2023-02-05T05:03:00;102343.81;;;3.12;91.18
48089;BME280;33867;50.314;7.802;2023-02-05T05:06:26;102343.19;;;3.04;90.63
48089;BME280;33867;50.314;7.802;2023-02-05T05:15:21;102352.19;;;3.00;91.54
48089;BME280;33867;50.314;7.802;2023-02-05T05:22:36;102357.13;;;3.12;91.68
48089;BME280;33867;50.314;7.802;2023-02-05T05:31:34;102363.09;;;3.20;90.24
48089;BME280;33867;50.314;7.802;2023-02-05T05:39:04;102365.84;;;3.17;91.68
48089;BME280;33867;50.314;7.802;2023-02-05T05:43:27;102366.91;;;3.12;91.52
48089;BME280;33867;50.314;7.802;2023-02-05T05:47:07;102359.13;;;3.34;90.55
48089;BME280;33867;50.314;7.802;2023-02-05T05:50:28;102367.78;;;3.12;91.97
48089;BME280;33867;50.314;7.802;2023-02-05T05:54:25;102353.22;;;2.94;94.01
48089;BME280;33867;50.314;7.802;2023-02-05T06:02:42;102338.69;;;2.46;95.81
48089;BME280;33867;50.314;7.802;2023-02-05T06:06:25;102343.72;;;2.56;96.30
48089;BME280;33867;50.314;7.802;2023-02-05T06:09:55;102339.78;;;2.70;95.42
48089;BME280;33867;50.314;7.802;2023-02-05T06:17:56;102308.84;;;2.36;97.18
48089;BME280;33867;50.314;7.802;2023-02-05T06:21:49;102301.16;;;2.56;96.80
48089;BME280;33867;50.314;7.802;2023-02-05T06:25:18;102307.19;;;2.63;96.40
48089;BME280;33867;50.314;7.802;2023-02-05T06:28:40;102316.91;;;2.33;97.83
48089;BME280;33867;50.314;7.802;2023-02-05T06:37:32;102321.75;;;2.50;100.00
48089;BME280;33867;50.314;7.802;2023-02-05T06:40:56;102314.22;;;2.66;97.37
48089;BME280;33867;50.314;7.802;2023-02-05T07:16:15;102347.78;;;2.99;94.38
48089;BME280;33867;50.314;7.802;2023-02-05T07:20:11;102340.25;;;3.13;92.41
48089;BME280;33867;50.314;7.802;2023-02-05T07:23:30;102328.28;;;3.27;92.25
48089;BME280;33867;50.314;7.802;2023-02-05T07:27:26;102326.38;;;3.32;92.18
48089;BME280;33867;50.314;7.802;2023-02-05T07:31:13;102314.75;;;3.34;91.90
48089;BME280;33867;50.314;7.802;2023-02-05T07:34:41;102326.28;;;3.35;91.71
48089;BME280;33867;50.314;7.802;2023-02-05T07:38:19;102311.19;;;3.06;93.50
48089;BME280;33867;50.314;7.802;2023-02-05T07:42:07;102310.53;;;2.99;94.24
48089;BME280;33867;50.314;7.802;2023-02-05T07:46:03;102292.97;;;3.21;93.77
48089;BME280;33867;50.314;7.802;2023-02-05T07:49:27;102293.38;;;3.36;92.56
48089;BME280;33867;50.314;7.802;2023-02-05T08:05:38;102294.78;;;3.47;92.73
48089;BME280;33867;50.314;7.802;2023-02-05T08:46:23;102276.00;;;4.02;90.33
48089;BME280;33867;50.314;7.802;2023-02-05T08:49:54;102272.81;;;4.17;89.34
48089;BME280;33867;50.314;7.802;2023-02-05T09:05:56;102253.44;;;4.12;90.56
48089;BME280;33867;50.314;7.802;2023-02-05T09:14:31;102258.72;;;4.14;90.99
48089;BME280;33867;50.314;7.802;2023-02-05T09:18:08;102248.31;;;4.31;89.98
48089;BME280;33867;50.314;7.802;2023-02-05T09:21:33;102245.63;;;3.83;92.85
48089;BME280;33867;50.314;7.802;2023-02-05T09:24:55;102240.00;;;4.15;91.78
48089;BME280;33867;50.314;7.802;2023-02-05T09:28:15;102226.97;;;4.07;92.79
48089;BME280;33867;50.314;7.802;2023-02-05T09:31:36;102230.38;;;4.34;91.61
48089;BME280;33867;50.314;7.802;2023-02-05T09:35:21;102215.59;;;4.49;90.62
48089;BME280;33867;50.314;7.802;2023-02-05T09:38:43;102213.03;;;4.46;90.66
48089;BME280;33867;50.314;7.802;2023-02-05T09:42:36;102220.19;;;4.46;90.23
48089;BME280;33867;50.314;7.802;2023-02-05T10:03:35;102216.56;;;4.70;90.38
48089;BME280;33867;50.314;7.802;2023-02-05T10:26:20;102182.78;;;4.47;93.48
48089;BME280;33867;50.314;7.802;2023-02-05T10:30:18;102176.88;;;4.61;93.28
48089;BME280;33867;50.314;7.802;2023-02-05T10:39:30;102175.16;;;4.82;94.11
48089;BME280;33867;50.314;7.802;2023-02-05T11:12:41;102129.97;;;5.19;95.09
48089;BME280;33867;50.314;7.802;2023-02-05T11:17:17;102137.59;;;5.28;94.57
48089;BME280;33867;50.314;7.802;2023-02-05T11:21:15;102134.00;;;5.29;94.96
48089;BME280;33867;50.314;7.802;2023-02-05T11:25:26;102137.06;;;5.20;96.06
48089;BME280;33867;50.314;7.802;2023-02-05T12:08:57;102153.72;;;6.26;91.88
48089;BME280;33867;50.314;7.802;2023-02-05T12:21:14;102148.50;;;6.60;91.41
48089;BME280;33867;50.314;7.802;2023-02-05T12:32:56;102141.69;;;7.25;87.98
48089;BME280;33867;50.314;7.802;2023-02-05T12:37:06;102141.69;;;7.43;88.68
48089;BME280;33867;50.314;7.802;2023-02-05T13:20:37;102146.91;;;7.11;86.49
48089;BME280;33867;50.314;7.802;2023-02-05T13:24:41;102140.91;;;7.41;86.66
48089;BME280;33867;50.314;7.802;2023-02-05T13:53:14;102128.13;;;7.46;86.11
48089;BME280;33867;50.314;7.802;2023-02-05T14:01:28;102128.06;;;7.30;86.76
48089;BME280;33867;50.314;7.802;2023-02-05T14:09:48;102128.41;;;7.57;86.25
48089;BME280;33867;50.314;7.802;2023-02-05T14:23:10;102152.41;;;7.25;86.32
48089;BME280;33867;50.314;7.802;2023-02-05T14:31:05;102150.97;;;7.18;87.11
48089;BME280;33867;50.314;7.802;2023-02-05T14:34:44;102161.06;;;7.13;86.84
48089;BME280;33867;50.314;7.802;2023-02-05T14:38:15;102169.25;;;7.10;87.14
48089;BME280;33867;50.314;7.802;2023-02-05T14:44:59;102172.22;;;6.87;87.89
48089;BME280;33867;50.314;7.802;2023-02-05T14:48:27;102184.78;;;6.85;87.85
48089;BME280;33867;50.314;7.802;2023-02-05T14:52:00;102179.44;;;6.85;88.18
48089;BME280;33867;50.314;7.802;2023-02-05T14:55:25;102184.53;;;6.72;88.92
48089;BME280;33867;50.314;7.802;2023-02-05T14:58:56;102184.59;;;6.70;89.25
48089;BME280;33867;50.314;7.802;2023-02-05T15:02:44;102193.06;;;6.80;88.80
48089;BME280;33867;50.314;7.802;2023-02-05T15:06:13;102192.00;;;6.65;88.99
48089;BME280;33867;50.314;7.802;2023-02-05T15:13:11;102197.00;;;6.54;89.35
48089;BME280;33867;50.314;7.802;2023-02-05T15:16:31;102205.66;;;6.59;89.29
48089;BME280;33867;50.314;7.802;2023-02-05T15:19:52;102214.34;;;6.64;88.91
48089;BME280;33867;50.314;7.802;2023-02-05T15:29:57;102225.69;;;6.51;89.86
48089;BME280;33867;50.314;7.802;2023-02-05T15:33:27;102220.56;;;6.46;90.32
48089;BME280;33867;50.314;7.802;2023-02-05T15:36:57;102233.72;;;6.51;89.58
48089;BME280;33867;50.314;7.802;2023-02-05T15:40:24;102237.03;;;6.37;90.40
48089;BME280;33867;50.314;7.802;2023-02-05T15:44:01;102237.78;;;6.40;90.00
48089;BME280;33867;50.314;7.802;2023-02-05T15:47:25;102229.22;;;6.32;90.28
48089;BME280;33867;50.314;7.802;2023-02-05T15:50:50;102234.13;;;6.23;90.51
48089;BME280;33867;50.314;7.802;2023-02-05T15:54:21;102236.72;;;6.05;91.07
48089;BME280;33867;50.314;7.802;2023-02-05T15:57:42;102250.81;;;6.09;91.70
48089;BME280;33867;50.314;7.802;2023-02-05T16:01:02;102256.09;;;6.10;92.05
48089;BME280;33867;50.314;7.802;2023-02-05T16:04:34;102279.06;;;6.14;91.54
48089;BME280;33867;50.314;7.802;2023-02-05T16:07:54;102283.84;;;6.08;91.39
48089;BME280;33867;50.314;7.802;2023-02-05T16:11:32;102289.91;;;6.11;91.50
48089;BME280;33867;50.314;7.802;2023-02-05T16:15:12;102299.75;;;6.11;91.40
48089;BME280;33867;50.314;7.802;2023-02-05T16:18:39;102303.03;;;6.18;90.42
48089;BME280;33867;50.314;7.802;2023-02-05T16:25:48;102317.81;;;6.06;90.87
48089;BME280;33867;50.314;7.802;2023-02-05T16:29:18;102329.13;;;5.91;91.46
48089;BME280;33867;50.314;7.802;2023-02-05T16:32:40;102321.72;;;5.97;91.57
48089;BME280;33867;50.314;7.802;2023-02-05T16:36:05;102333.84;;;6.06;91.11
48089;BME280;33867;50.314;7.802;2023-02-05T16:39:28;102338.84;;;5.93;91.69
48089;BME280;33867;50.314;7.802;2023-02-05T16:42:52;102348.47;;;5.97;91.69
48089;BME280;33867;50.314;7.802;2023-02-05T16:49:34;102365.31;;;5.99;91.09
48089;BME280;33867;50.314;7.802;2023-02-05T16:52:56;102365.94;;;5.84;91.20
48089;BME280;33867;50.314;7.802;2023-02-05T16:56:23;102370.94;;;5.93;91.44
48089;BME280;33867;50.314;7.802;2023-02-05T16:59:58;102379.88;;;5.70;91.88
48089;BME280;33867;50.314;7.802;2023-02-05T17:06:54;102402.34;;;5.65;92.23
48089;BME280;33867;50.314;7.802;2023-02-05T17:10:21;102408.31;;;5.49;92.55
48089;BME280;33867;50.314;7.802;2023-02-05T17:13:43;102413.41;;;5.55;92.24
48089;BME280;33867;50.314;7.802;2023-02-05T17:17:17;102427.22;;;5.45;91.93
48089;BME280;33867;50.314;7.802;2023-02-05T17:20:42;102421.09;;;5.41;91.93
48089;BME280;33867;50.314;7.802;2023-02-05T17:24:03;102424.59;;;5.43;91.78
48089;BME280;33867;50.314;7.802;2023-02-05T17:27:37;102417.44;;;5.44;91.47
48089;BME280;33867;50.314;7.802;2023-02-05T17:30:57;102418.38;;;5.43;91.15
48089;BME280;33867;50.314;7.802;2023-02-05T17:34:22;102432.38;;;5.49;91.06
48089;BME280;33867;50.314;7.802;2023-02-05T17:37:44;102444.28;;;5.41;91.44
48089;BME280;33867;50.314;7.802;2023-02-05T17:41:14;102451.72;;;5.33;91.07
48089;BME280;33867;50.314;7.802;2023-02-05T17:44:52;102462.19;;;5.39;91.38
48089;BME280;33867;50.314;7.802;2023-02-05T17:48:12;102468.09;;;5.23;90.42
48089;BME280;33867;50.314;7.802;2023-02-05T17:51:31;102467.00;;;5.29;91.02
48089;BME280;33867;50.314;7.802;2023-02-05T17:54:50;102473.38;;;5.25;91.19
48089;BME280;33867;50.314;7.802;2023-02-05T17:58:09;102469.78;;;5.26;91.15
48089;BME280;33867;50.314;7.802;2023-02-05T18:01:28;102480.00;;;5.38;91.73
48089;BME280;33867;50.314;7.802;2023-02-05T18:04:47;102471.19;;;5.36;91.34
48089;BME280;33867;50.314;7.802;2023-02-05T18:08:06;102475.13;;;5.26;91.69
48089;BME280;33867;50.314;7.802;2023-02-05T18:11:28;102492.88;;;5.27;92.56
48089;BME280;33867;50.314;7.802;2023-02-05T18:14:47;102487.53;;;5.27;91.31
48089;BME280;33867;50.314;7.802;2023-02-05T18:18:07;102494.16;;;5.17;90.66
48089;BME280;33867;50.314;7.802;2023-02-05T18:21:26;102500.31;;;5.19;91.24
48089;BME280;33867;50.314;7.802;2023-02-05T18:24:45;102503.38;;;5.33;92.17
48089;BME280;33867;50.314;7.802;2023-02-05T18:28:04;102500.50;;;5.38;91.39
48089;BME280;33867;50.314;7.802;2023-02-05T18:31:23;102494.63;;;5.51;90.10
48089;BME280;33867;50.314;7.802;2023-02-05T18:34:42;102499.03;;;5.52;90.79
48089;BME280;33867;50.314;7.802;2023-02-05T18:38:03;102502.59;;;5.53;90.34
48089;BME280;33867;50.314;7.802;2023-02-05T18:41:23;102500.78;;;5.53;90.01
48089;BME280;33867;50.314;7.802;2023-02-05T18:44:47;102503.38;;;5.33;91.22
48089;BME280;33867;50.314;7.802;2023-02-05T18:48:06;102501.03;;;5.47;91.32
48089;BME280;33867;50.314;7.802;2023-02-05T18:51:26;102498.22;;;5.50;91.09
48089;BME280;33867;50.314;7.802;2023-02-05T18:54:45;102506.59;;;5.65;89.55
48089;BME280;33867;50.314;7.802;2023-02-05T18:58:05;102506.03;;;5.33;91.24
48089;BME280;33867;50.314;7.802;2023-02-05T19:01:25;102507.13;;;5.27;91.55
48089;BME280;33867;50.314;7.802;2023-02-05T19:04:47;102510.31;;;5.37;90.81
48089;BME280;33867;50.314;7.802;2023-02-05T19:08:11;102500.44;;;5.16;91.21
48089;BME280;33867;50.314;7.802;2023-02-05T19:11:30;102497.88;;;5.13;90.04
48089;BME280;33867;50.314;7.802;2023-02-05T19:14:50;102500.88;;;5.04;89.98
48089;BME280;33867;50.314;7.802;2023-02-05T19:18:09;102503.81;;;5.21;89.90
48089;BME280;33867;50.314;7.802;2023-02-05T19:21:29;102503.91;;;5.18;90.41
48089;BME280;33867;50.314;7.802;2023-02-05T19:24:57;102504.78;;;5.18;90.40
48089;BME280;33867;50.314;7.802;2023-02-05T19:28:16;102506.34;;;5.01;90.52
48089;BME280;33867;50.314;7.802;2023-02-05T19:31:36;102516.59;;;4.88;91.05
48089;BME280;33867;50.314;7.802;2023-02-05T19:34:56;102520.91;;;5.15;90.41
48089;BME280;33867;50.314;7.802;2023-02-05T19:38:23;102536.19;;;5.12;90.57
48089;BME280;33867;50.314;7.802;2023-02-05T19:42:40;102535.16;;;4.91;91.23
48089;BME280;33867;50.314;7.802;2023-02-05T19:46:05;102534.41;;;4.87;89.96
48089;BME280;33867;50.314;7.802;2023-02-05T19:49:25;102540.31;;;4.95;90.47
48089;BME280;33867;50.314;7.802;2023-02-05T19:52:44;102543.41;;;5.08;89.95
48089;BME280;33867;50.314;7.802;2023-02-05T19:56:08;102528.44;;;5.04;90.60
48089;BME280;33867;50.314;7.802;2023-02-05T19:59:28;102539.88;;;4.83;91.07
48089;BME280;33867;50.314;7.802;2023-02-05T20:02:51;102544.41;;;4.81;90.81
48089;BME280;33867;50.314;7.802;2023-02-05T20:06:12;102546.09;;;4.83;90.28
48089;BME280;33867;50.314;7.802;2023-02-05T20:09:34;102541.03;;;5.01;90.31
48089;BME280;33867;50.314;7.802;2023-02-05T20:12:53;102550.25;;;4.92;91.36
48089;BME280;33867;50.314;7.802;2023-02-05T20:16:19;102556.94;;;5.04;90.54
48089;BME280;33867;50.314;7.802;2023-02-05T20:19:38;102555.53;;;4.93;90.38
48089;BME280;33867;50.314;7.802;2023-02-05T20:22:57;102562.00;;;4.86;90.66
48089;BME280;33867;50.314;7.802;2023-02-05T20:26:17;102565.44;;;4.90;90.57
48089;BME280;33867;50.314;7.802;2023-02-05T20:29:36;102562.59;;;4.94;90.72
48089;BME280;33867;50.314;7.802;2023-02-05T20:33:14;102568.97;;;4.90;90.64
48089;BME280;33867;50.314;7.802;2023-02-05T20:36:36;102573.66;;;4.84;89.93
48089;BME280;33867;50.314;7.802;2023-02-05T20:39:55;102576.06;;;4.91;90.53
48089;BME280;33867;50.314;7.802;2023-02-05T20:43:14;102583.00;;;4.70;90.71
48089;BME280;33867;50.314;7.802;2023-02-05T20:46:34;102588.09;;;4.78;90.90
48089;BME280;33867;50.314;7.802;2023-02-05T20:49:53;102589.66;;;4.84;91.39
48089;BME280;33867;50.314;7.802;2023-02-05T20:53:12;102592.44;;;4.81;91.21
48089;BME280;33867;50.314;7.802;2023-02-05T20:56:32;102596.59;;;4.89;90.85
48089;BME280;33867;50.314;7.802;2023-02-05T20:59:51;102596.44;;;4.94;90.87
48089;BME280;33867;50.314;7.802;2023-02-05T21:03:10;102607.78;;;5.01;91.03
48089;BME280;33867;50.314;7.802;2023-02-05T21:06:36;102603.44;;;4.98;90.42
48089;BME280;33867;50.314;7.802;2023-02-05T21:10:04;102596.75;;;5.11;90.28
48089;BME280;33867;50.314;7.802;2023-02-05T21:13:23;102590.03;;;4.99;90.18
48089;BME280;33867;50.314;7.802;2023-02-05T21:16:42;102595.44;;;4.96;90.42
48089;BME280;33867;50.314;7.802;2023-02-05T21:20:02;102594.69;;;4.66;91.05
48089;BME280;33867;50.314;7.802;2023-02-05T21:23:23;102595.34;;;4.73;91.23
48089;BME280;33867;50.314;7.802;2023-02-05T21:26:46;102605.59;;;4.87;91.59
48089;BME280;33867;50.314;7.802;2023-02-05T21:30:07;102604.72;;;4.86;91.53
48089;BME280;33867;50.314;7.802;2023-02-05T21:33:28;102604.19;;;5.02;90.61
48089;BME280;33867;50.314;7.802;2023-02-05T21:36:51;102597.97;;;5.01;91.10
48089;BME280;33867;50.314;7.802;2023-02-05T21:40:10;102618.97;;;4.85;89.75
48089;BME280;33867;50.314;7.802;2023-02-05T21:43:29;102625.75;;;4.95;89.60
48089;BME280;33867;50.314;7.802;2023-02-05T21:46:51;102629.28;;;4.96;89.81
48089;BME280;33867;50.314;7.802;2023-02-05T21:50:31;102635.97;;;5.09;90.03
48089;BME280;33867;50.314;7.802;2023-02-05T21:53:58;102631.81;;;5.01;91.20
48089;BME280;33867;50.314;7.802;2023-02-05T21:57:18;102645.81;;;5.07;90.00
48089;BME280;33867;50.314;7.802;2023-02-05T22:00:38;102641.31;;;5.09;90.75
48089;BME280;33867;50.314;7.802;2023-02-05T22:04:11;102641.44;;;5.05;90.77
48089;BME280;33867;50.314;7.802;2023-02-05T22:07:58;102645.25;;;5.24;90.21
48089;BME280;33867;50.314;7.802;2023-02-05T22:11:24;102648.66;;;5.03;89.60
48089;BME280;33867;50.314;7.802;2023-02-05T22:19:15;102658.53;;;4.73;92.33
48089;BME280;33867;50.314;7.802;2023-02-05T22:22:35;102659.50;;;4.70;92.46
48089;BME280;33867;50.314;7.802;2023-02-05T22:25:54;102654.69;;;4.81;91.79
48089;BME280;33867;50.314;7.802;2023-02-05T22:29:16;102669.78;;;4.82;92.43
48089;BME280;33867;50.314;7.802;2023-02-05T22:32:35;102665.78;;;4.95;91.21
48089;BME280;33867;50.314;7.802;2023-02-05T22:35:54;102664.44;;;5.09;90.36
48089;BME280;33867;50.314;7.802;2023-02-05T22:39:13;102660.97;;;5.07;90.96
48089;BME280;33867;50.314;7.802;2023-02-05T22:42:32;102660.03;;;5.08;91.37
48089;BME280;33867;50.314;7.802;2023-02-05T22:45:54;102668.16;;;5.05;90.38
48089;BME280;33867;50.314;7.802;2023-02-05T22:49:16;102674.59;;;4.99;90.95
48089;BME280;33867;50.314;7.802;2023-02-05T22:52:35;102677.56;;;4.90;91.34
48089;BME280;33867;50.314;7.802;2023-02-05T22:55:54;102680.53;;;5.07;91.18
48089;BME280;33867;50.314;7.802;2023-02-05T22:59:13;102688.28;;;4.88;91.67
48089;BME280;33867;50.314;7.802;2023-02-05T23:02:32;102695.84;;;5.02;91.39
48089;BME280;33867;50.314;7.802;2023-02-05T23:05:52;102693.88;;;5.07;90.97
48089;BME280;33867;50.314;7.802;2023-02-05T23:09:17;102681.91;;;4.92;91.24
48089;BME280;33867;50.314;7.802;2023-02-05T23:12:36;102682.44;;;5.04;90.45
48089;BME280;33867;50.314;7.802;2023-02-05T23:15:55;102692.47;;;4.95;91.08
48089;BME280;33867;50.314;7.802;2023-02-05T23:19:17;102688.56;;;4.79;91.30
48089;BME280;33867;50.314;7.802;2023-02-05T23:22:37;102685.69;;;4.85;91.53
48089;BME280;33867;50.314;7.802;2023-02-05T23:25:56;102691.56;;;4.96;90.74
48089;BME280;33867;50.314;7.802;2023-02-05T23:29:15;102684.97;;;4.80;91.11
48089;BME280;33867;50.314;7.802;2023-02-05T23:32:34;102681.38;;;4.81;91.80
48089;BME280;33867;50.314;7.802;2023-02-05T23:35:54;102682.75;;;4.66;92.36
48089;BME280;33867;50.314;7.802;2023-02-05T23:39:13;102683.09;;;4.56;93.25
48089;BME280;33867;50.314;7.802;2023-02-05T23:42:32;102681.03;;;4.65;92.76
48089;BME280;33867;50.314;7.802;2023-02-05T23:45:52;102691.28;;;4.78;92.30
48089;BME280;33867;50.314;7.802;2023-02-05T23:49:11;102690.53;;;4.74;92.31
48089;BME280;33867;50.314;7.802;2023-02-05T23:52:30;102695.47;;;4.86;92.15
48089;BME280;33867;50.314;7.802;2023-02-05T23:55:51;102688.06;;;4.94;91.54
48089;BME280;33867;50.314;7.802;2023-02-05T23:59:11;102696.81;;;4.99;90.87
